sensor_id;sensor_type;location;lat;lon;timestamp;pressure;altitude;pressure_sealevel;temperature;humidity
21504;BME280;10913;51.992;9.228;2023-02-04T00:00:08;101487.13;;;6.58;100.00
21504;BME280;10913;51.992;9.228;2023-02-04T00:02:35;101490.56;;;6.55;100.00
21504;BME280;10913;51.992;9.228;2023-02-04T00:05:02;101495.72;;;6.52;100.00
21504;BME280;10913;51.992;9.228;2023-02-04T00:07:27;101502.72;;;6.52;100.00
21504;BME280;10913;51.992;9.228;2023-02-04T00:09:53;101493.94;;;6.51;100.00
21504;BME280;10913;51.992;9.228;2023-02-04T00:12:20;101494.75;;;6.49;100.00
21504;BME280;10913;51.992;9.228;2023-02-04T00:14:46;101482.44;;;6.48;100.00
21504;BME280;10913;51.992;9.228;2023-02-04T00:17:11;101485.03;;;6.46;100.00
21504;BME280;10913;51.992;9.228;2023-02-04T00:19:38;101495.53;;;6.46;100.00
21504;BME280;10913;51.992;9.228;2023-02-04T00:22:04;101500.78;;;6.46;100.00
21504;BME280;10913;51.992;9.228;2023-02-04T00:24:29;101497.28;;;6.46;100.00
21504;BME280;10913;51.992;9.228;2023-02-04T00:26:55;101516.50;;;6.45;100.00
21504;BME280;10913;51.992;9.228;2023-02-04T00:29:21;101530.41;;;6.42;100.00
21504;BME280;10913;51.992;9.228;2023-02-04T00:31:46;101520.84;;;6.44;100.00
21504;BME280;10913;51.992;9.228;2023-02-04T00:34:11;101526.94;;;6.43;100.00
21504;BME280;10913;51.992;9.228;2023-02-04T00:36:37;101518.31;;;6.47;100.00
21504;BME280;10913;51.992;9.228;2023-02-04T00:39:02;101514.84;;;6.48;100.00
21504;BME280;10913;51.992;9.228;2023-02-04T00:41:27;101519.34;;;6.52;100.00
21504;BME280;10913;51.992;9.228;2023-02-04T00:43:53;101527.31;;;6.55;100.00
21504;BME280;10913;51.992;9.228;2023-02-04T00:46:18;101525.53;;;6.54;100.00
21504;BME280;10913;51.992;9.228;2023-02-04T00:48:43;101534.34;;;6.56;100.00
21504;BME280;10913;51.992;9.228;2023-02-04T00:51:09;101538.81;;;6.61;100.00
21504;BME280;10913;51.992;9.228;2023-02-04T00:53:34;101535.44;;;6.65;100.00
21504;BME280;10913;51.992;9.228;2023-02-04T00:56:00;101545.09;;;6.66;100.00
21504;BME280;10913;51.992;9.228;2023-02-04T00:58:25;101555.59;;;6.66;100.00
21504;BME280;10913;51.992;9.228;2023-02-04T01:00:50;101553.03;;;6.67;100.00
21504;BME280;10913;51.992;9.228;2023-02-04T01:03:16;101561.81;;;6.68;100.00
21504;BME280;10913;51.992;9.228;2023-02-04T01:05:41;101559.19;;;6.68;100.00
21504;BME280;10913;51.992;9.228;2023-02-04T01:08:06;101571.47;;;6.69;100.00
21504;BME280;10913;51.992;9.228;2023-02-04T01:10:32;101575.03;;;6.71;100.00
21504;BME280;10913;51.992;9.228;2023-02-04T01:12:57;101581.97;;;6.69;100.00
21504;BME280;10913;51.992;9.228;2023-02-04T01:15:23;101589.00;;;6.70;100.00
21504;BME280;10913;51.992;9.228;2023-02-04T01:17:48;101596.88;;;6.70;100.00
21504;BME280;10913;51.992;9.228;2023-02-04T01:20:14;101617.94;;;6.71;100.00
21504;BME280;10913;51.992;9.228;2023-02-04T01:22:39;101628.38;;;6.70;100.00
21504;BME280;10913;51.992;9.228;2023-02-04T01:25:05;101635.28;;;6.66;100.00
21504;BME280;10913;51.992;9.228;2023-02-04T01:27:31;101635.22;;;6.65;100.00
21504;BME280;10913;51.992;9.228;2023-02-04T01:29:56;101641.31;;;6.64;100.00
21504;BME280;10913;51.992;9.228;2023-02-04T01:32:21;101643.00;;;6.62;100.00
21504;BME280;10913;51.992;9.228;2023-02-04T01:34:47;101643.78;;;6.57;100.00
21504;BME280;10913;51.992;9.228;2023-02-04T01:37:12;101644.53;;;6.53;100.00
21504;BME280;10913;51.992;9.228;2023-02-04T01:39:37;101644.41;;;6.50;100.00
21504;BME280;10913;51.992;9.228;2023-02-04T01:42:03;101651.34;;;6.48;100.00
21504;BME280;10913;51.992;9.228;2023-02-04T01:44:28;101646.84;;;6.44;100.00
21504;BME280;10913;51.992;9.228;2023-02-04T01:46:57;101651.16;;;6.42;100.00
21504;BME280;10913;51.992;9.228;2023-02-04T01:49:23;101658.09;;;6.40;100.00
21504;BME280;10913;51.992;9.228;2023-02-04T01:51:49;101664.16;;;6.38;100.00
21504;BME280;10913;51.992;9.228;2023-02-04T01:54:15;101664.16;;;6.38;100.00
21504;BME280;10913;51.992;9.228;2023-02-04T01:56:44;101671.97;;;6.36;100.00
21504;BME280;10913;51.992;9.228;2023-02-04T01:59:15;101679.78;;;6.35;100.00
21504;BME280;10913;51.992;9.228;2023-02-04T02:01:42;101678.81;;;6.31;100.00
21504;BME280;10913;51.992;9.228;2023-02-04T02:04:16;101676.91;;;6.27;100.00
21504;BME280;10913;51.992;9.228;2023-02-04T02:07:02;101681.31;;;6.28;100.00
21504;BME280;10913;51.992;9.228;2023-02-04T02:09:30;101689.19;;;6.28;100.00
21504;BME280;10913;51.992;9.228;2023-02-04T02:12:00;101696.13;;;6.26;100.00
21504;BME280;10913;51.992;9.228;2023-02-04T02:14:26;101701.38;;;6.26;100.00
21504;BME280;10913;51.992;9.228;2023-02-04T02:16:52;101694.34;;;6.25;100.00
21504;BME280;10913;51.992;9.228;2023-02-04T02:19:32;101702.16;;;6.23;100.00
21504;BME280;10913;51.992;9.228;2023-02-04T02:22:10;101708.13;;;6.19;100.00
21504;BME280;10913;51.992;9.228;2023-02-04T02:24:37;101709.91;;;6.19;100.00
21504;BME280;10913;51.992;9.228;2023-02-04T02:27:05;101716.78;;;6.15;100.00
21504;BME280;10913;51.992;9.228;2023-02-04T02:29:33;101728.06;;;6.13;100.00
21504;BME280;10913;51.992;9.228;2023-02-04T02:31:59;101729.66;;;6.09;100.00
21504;BME280;10913;51.992;9.228;2023-02-04T02:34:28;101738.25;;;6.05;100.00
21504;BME280;10913;51.992;9.228;2023-02-04T02:36:54;101748.81;;;6.07;100.00
21504;BME280;10913;51.992;9.228;2023-02-04T02:39:20;101747.94;;;6.06;100.00
21504;BME280;10913;51.992;9.228;2023-02-04T02:41:46;101763.72;;;6.08;100.00
21504;BME280;10913;51.992;9.228;2023-02-04T02:44:13;101754.13;;;6.08;100.00
21504;BME280;10913;51.992;9.228;2023-02-04T02:46:39;101770.75;;;6.09;100.00
21504;BME280;10913;51.992;9.228;2023-02-04T02:49:05;101767.28;;;6.10;100.00
21504;BME280;10913;51.992;9.228;2023-02-04T02:51:31;101771.53;;;6.06;100.00
21504;BME280;10913;51.992;9.228;2023-02-04T02:53:57;101776.66;;;6.03;100.00
21504;BME280;10913;51.992;9.228;2023-02-04T02:56:22;101782.69;;;6.01;100.00
21504;BME280;10913;51.992;9.228;2023-02-04T02:58:48;101786.16;;;6.00;100.00
21504;BME280;10913;51.992;9.228;2023-02-04T03:01:13;101792.28;;;5.99;100.00
21504;BME280;10913;51.992;9.228;2023-02-04T03:03:44;101791.31;;;5.97;100.00
21504;BME280;10913;51.992;9.228;2023-02-04T03:06:15;101806.16;;;5.96;100.00
21504;BME280;10913;51.992;9.228;2023-02-04T03:08:42;101816.66;;;5.96;100.00
21504;BME280;10913;51.992;9.228;2023-02-04T03:11:08;101824.53;;;5.96;100.00
21504;BME280;10913;51.992;9.228;2023-02-04T03:13:35;101819.09;;;5.92;100.00
21504;BME280;10913;51.992;9.228;2023-02-04T03:16:01;101826.03;;;5.90;100.00
21504;BME280;10913;51.992;9.228;2023-02-04T03:18:27;101816.28;;;5.87;100.00
21504;BME280;10913;51.992;9.228;2023-02-04T03:20:53;101827.75;;;5.89;100.00
21504;BME280;10913;51.992;9.228;2023-02-04T03:23:19;101827.75;;;5.89;100.00
21504;BME280;10913;51.992;9.228;2023-02-04T03:25:45;101813.66;;;5.87;100.00
21504;BME280;10913;51.992;9.228;2023-02-04T03:28:10;101831.28;;;5.90;100.00
21504;BME280;10913;51.992;9.228;2023-02-04T03:30:36;101834.84;;;5.92;100.00
21504;BME280;10913;51.992;9.228;2023-02-04T03:33:01;101839.25;;;5.93;100.00
21504;BME280;10913;51.992;9.228;2023-02-04T03:35:27;101836.63;;;5.93;100.00
21504;BME280;10913;51.992;9.228;2023-02-04T03:37:52;101841.03;;;5.94;100.00
21504;BME280;10913;51.992;9.228;2023-02-04T03:40:18;101852.38;;;5.93;100.00
21504;BME280;10913;51.992;9.228;2023-02-04T03:42:43;101855.81;;;5.92;100.00
21504;BME280;10913;51.992;9.228;2023-02-04T03:45:08;101861.06;;;5.92;100.00
21504;BME280;10913;51.992;9.228;2023-02-04T03:47:34;101857.50;;;5.90;100.00
21504;BME280;10913;51.992;9.228;2023-02-04T03:49:59;101866.19;;;5.88;100.00
21504;BME280;10913;51.992;9.228;2023-02-04T03:52:25;101871.44;;;5.88;100.00
21504;BME280;10913;51.992;9.228;2023-02-04T03:54:50;101878.47;;;5.90;100.00
21504;BME280;10913;51.992;9.228;2023-02-04T03:57:15;101882.88;;;5.91;100.00
21504;BME280;10913;51.992;9.228;2023-02-04T03:59:41;101872.25;;;5.87;100.00
21504;BME280;10913;51.992;9.228;2023-02-04T04:02:07;101880.88;;;5.85;100.00
21504;BME280;10913;51.992;9.228;2023-02-04T04:04:32;101886.91;;;5.82;100.00
21504;BME280;10913;51.992;9.228;2023-02-04T04:06:57;101898.22;;;5.81;100.00
21504;BME280;10913;51.992;9.228;2023-02-04T04:09:23;101905.25;;;5.82;100.00
21504;BME280;10913;51.992;9.228;2023-02-04T04:11:48;101903.41;;;5.80;100.00
21504;BME280;10913;51.992;9.228;2023-02-04T04:14:14;101918.38;;;5.82;100.00
21504;BME280;10913;51.992;9.228;2023-02-04T04:16:39;101921.84;;;5.81;100.00
21504;BME280;10913;51.992;9.228;2023-02-04T04:19:04;101926.25;;;5.82;100.00
21504;BME280;10913;51.992;9.228;2023-02-04T04:21:30;101930.53;;;5.80;100.00
21504;BME280;10913;51.992;9.228;2023-02-04T04:23:55;101925.19;;;5.77;100.00
21504;BME280;10913;51.992;9.228;2023-02-04T04:26:20;101929.47;;;5.75;100.00
21504;BME280;10913;51.992;9.228;2023-02-04T04:28:46;101933.78;;;5.73;100.00
21504;BME280;10913;51.992;9.228;2023-02-04T04:31:11;101947.72;;;5.72;100.00
21504;BME280;10913;51.992;9.228;2023-02-04T04:33:37;101955.53;;;5.71;100.00
21504;BME280;10913;51.992;9.228;2023-02-04T04:36:03;101958.00;;;5.68;100.00
21504;BME280;10913;51.992;9.228;2023-02-04T04:38:28;101956.28;;;5.68;100.00
21504;BME280;10913;51.992;9.228;2023-02-04T04:40:54;101963.19;;;5.66;100.00
21504;BME280;10913;51.992;9.228;2023-02-04T04:43:19;101966.59;;;5.64;100.00
21504;BME280;10913;51.992;9.228;2023-02-04T04:45:45;101975.22;;;5.61;100.00
21504;BME280;10913;51.992;9.228;2023-02-04T04:48:10;101976.13;;;5.62;100.00
21504;BME280;10913;51.992;9.228;2023-02-04T04:50:36;101984.03;;;5.63;100.00
21504;BME280;10913;51.992;9.228;2023-02-04T04:53:01;101978.81;;;5.63;100.00
21504;BME280;10913;51.992;9.228;2023-02-04T04:55:26;101983.22;;;5.64;100.00
21504;BME280;10913;51.992;9.228;2023-02-04T04:57:52;101983.16;;;5.63;100.00
21504;BME280;10913;51.992;9.228;2023-02-04T05:00:19;101980.47;;;5.61;100.00
21504;BME280;10913;51.992;9.228;2023-02-04T05:02:44;101987.50;;;5.62;100.00
21504;BME280;10913;51.992;9.228;2023-02-04T05:05:11;102003.22;;;5.62;100.00
21504;BME280;10913;51.992;9.228;2023-02-04T05:07:37;102003.22;;;5.62;100.00
21504;BME280;10913;51.992;9.228;2023-02-04T05:10:03;101998.75;;;5.60;100.00
21504;BME280;10913;51.992;9.228;2023-02-04T05:12:29;102001.34;;;5.58;100.00
21504;BME280;10913;51.992;9.228;2023-02-04T05:14:54;102007.41;;;5.57;100.00
21504;BME280;10913;51.992;9.228;2023-02-04T05:17:20;102006.53;;;5.57;100.00
21504;BME280;10913;51.992;9.228;2023-02-04T05:19:45;102020.47;;;5.56;100.00
21504;BME280;10913;51.992;9.228;2023-02-04T05:22:10;102022.19;;;5.55;100.00
21504;BME280;10913;51.992;9.228;2023-02-04T05:24:36;102021.22;;;5.53;100.00
21504;BME280;10913;51.992;9.228;2023-02-04T05:27:01;102024.66;;;5.52;100.00
21504;BME280;10913;51.992;9.228;2023-02-04T05:29:27;102017.63;;;5.51;100.00
21504;BME280;10913;51.992;9.228;2023-02-04T05:31:52;102017.50;;;5.48;100.00
21504;BME280;10913;51.992;9.228;2023-02-04T05:34:17;102019.22;;;5.47;100.00
21504;BME280;10913;51.992;9.228;2023-02-04T05:36:43;102014.88;;;5.48;100.00
21504;BME280;10913;51.992;9.228;2023-02-04T05:39:08;102020.97;;;5.47;100.00
21504;BME280;10913;51.992;9.228;2023-02-04T05:41:33;102031.38;;;5.45;100.00
21504;BME280;10913;51.992;9.228;2023-02-04T05:43:59;102040.91;;;5.43;100.00
21504;BME280;10913;51.992;9.228;2023-02-04T05:46:24;102039.16;;;5.44;100.00
21504;BME280;10913;51.992;9.228;2023-02-04T05:48:50;102041.78;;;5.44;100.00
21504;BME280;10913;51.992;9.228;2023-02-04T05:51:15;102053.09;;;5.43;100.00
21504;BME280;10913;51.992;9.228;2023-02-04T05:53:41;102059.19;;;5.42;100.00
21504;BME280;10913;51.992;9.228;2023-02-04T05:56:06;102068.84;;;5.43;100.00
21504;BME280;10913;51.992;9.228;2023-02-04T05:58:31;102067.03;;;5.42;100.00
21504;BME280;10913;51.992;9.228;2023-02-04T06:01:00;102073.94;;;5.40;100.00
21504;BME280;10913;51.992;9.228;2023-02-04T06:03:27;102083.34;;;5.35;100.00
21504;BME280;10913;51.992;9.228;2023-02-04T06:05:52;102095.50;;;5.33;100.00
21504;BME280;10913;51.992;9.228;2023-02-04T06:08:18;102079.63;;;5.30;100.00
21504;BME280;10913;51.992;9.228;2023-02-04T06:10:43;102078.59;;;5.26;100.00
21504;BME280;10913;51.992;9.228;2023-02-04T06:13:09;102084.59;;;5.24;100.00
21504;BME280;10913;51.992;9.228;2023-02-04T06:15:34;102082.69;;;5.19;100.00
21504;BME280;10913;51.992;9.228;2023-02-04T06:18:00;102091.31;;;5.17;100.00
21504;BME280;10913;51.992;9.228;2023-02-04T06:20:25;102090.41;;;5.16;100.00
21504;BME280;10913;51.992;9.228;2023-02-04T06:22:50;102089.44;;;5.14;100.00
21504;BME280;10913;51.992;9.228;2023-02-04T06:25:17;102098.91;;;5.11;98.37
21504;BME280;10913;51.992;9.228;2023-02-04T06:27:43;102100.47;;;5.07;98.52
21504;BME280;10913;51.992;9.228;2023-02-04T06:30:09;102110.94;;;5.07;99.19
21504;BME280;10913;51.992;9.228;2023-02-04T06:32:35;102110.19;;;5.10;99.66
21504;BME280;10913;51.992;9.228;2023-02-04T06:35:00;102109.38;;;5.11;98.99
21504;BME280;10913;51.992;9.228;2023-02-04T06:37:25;102112.75;;;5.08;98.45
21504;BME280;10913;51.992;9.228;2023-02-04T06:39:51;102118.88;;;5.09;97.70
21504;BME280;10913;51.992;9.228;2023-02-04T06:42:18;102123.09;;;5.05;97.67
21504;BME280;10913;51.992;9.228;2023-02-04T06:44:43;102126.47;;;5.03;98.28
21504;BME280;10913;51.992;9.228;2023-02-04T06:47:09;102123.75;;;5.01;97.52
21504;BME280;10913;51.992;9.228;2023-02-04T06:49:34;102130.47;;;4.95;98.26
21504;BME280;10913;51.992;9.228;2023-02-04T06:52:00;102128.69;;;4.94;98.94
21504;BME280;10913;51.992;9.228;2023-02-04T06:54:25;102141.84;;;4.95;99.16
21504;BME280;10913;51.992;9.228;2023-02-04T06:56:50;102149.69;;;4.95;99.28
21504;BME280;10913;51.992;9.228;2023-02-04T06:59:16;102150.69;;;4.97;99.39
21504;BME280;10913;51.992;9.228;2023-02-04T07:01:42;102158.72;;;5.02;99.04
21504;BME280;10913;51.992;9.228;2023-02-04T07:04:07;102164.91;;;5.04;99.03
21504;BME280;10913;51.992;9.228;2023-02-04T07:06:32;102157.13;;;5.05;98.70
21504;BME280;10913;51.992;9.228;2023-02-04T07:08:58;102156.25;;;5.05;97.81
21504;BME280;10913;51.992;9.228;2023-02-04T07:11:23;102161.25;;;5.00;97.65
21504;BME280;10913;51.992;9.228;2023-02-04T07:13:48;102162.94;;;4.98;98.24
21504;BME280;10913;51.992;9.228;2023-02-04T07:16:14;102159.50;;;4.99;98.54
21504;BME280;10913;51.992;9.228;2023-02-04T07:18:39;102169.97;;;4.99;98.79
21504;BME280;10913;51.992;9.228;2023-02-04T07:21:04;102175.31;;;5.02;98.96
21504;BME280;10913;51.992;9.228;2023-02-04T07:23:30;102184.31;;;5.07;99.03
21504;BME280;10913;51.992;9.228;2023-02-04T07:25:55;102186.66;;;5.20;98.42
21504;BME280;10913;51.992;9.228;2023-02-04T07:28:23;102183.84;;;5.35;97.73
21504;BME280;10913;51.992;9.228;2023-02-04T07:30:49;102186.22;;;5.50;97.41
21504;BME280;10913;51.992;9.228;2023-02-04T07:33:14;102194.59;;;5.81;96.58
21504;BME280;10913;51.992;9.228;2023-02-04T07:35:39;102198.97;;;6.43;93.34
21504;BME280;10913;51.992;9.228;2023-02-04T07:38:05;102193.19;;;6.95;90.90
21504;BME280;10913;51.992;9.228;2023-02-04T07:40:31;102195.50;;;7.34;89.34
21504;BME280;10913;51.992;9.228;2023-02-04T07:42:56;102197.31;;;7.35;88.00
21504;BME280;10913;51.992;9.228;2023-02-04T07:45:22;102209.69;;;7.63;87.46
21504;BME280;10913;51.992;9.228;2023-02-04T07:47:47;102215.72;;;7.84;85.23
21504;BME280;10913;51.992;9.228;2023-02-04T07:50:13;102215.75;;;7.60;84.26
21504;BME280;10913;51.992;9.228;2023-02-04T07:52:38;102212.59;;;7.22;84.30
21504;BME280;10913;51.992;9.228;2023-02-04T07:55:05;102230.34;;;6.83;84.74
21504;BME280;10913;51.992;9.228;2023-02-04T07:57:30;102237.53;;;6.44;86.27
21504;BME280;10913;51.992;9.228;2023-02-04T07:59:56;102236.63;;;6.23;87.69
21504;BME280;10913;51.992;9.228;2023-02-04T08:02:21;102231.00;;;6.14;88.95
21504;BME280;10913;51.992;9.228;2023-02-04T08:04:47;102241.50;;;6.14;89.44
21504;BME280;10913;51.992;9.228;2023-02-04T08:07:12;102239.84;;;6.16;89.77
21504;BME280;10913;51.992;9.228;2023-02-04T08:09:38;102236.41;;;6.38;89.80
21504;BME280;10913;51.992;9.228;2023-02-04T08:12:03;102230.91;;;6.97;88.80
21504;BME280;10913;51.992;9.228;2023-02-04T08:14:29;102231.47;;;8.08;84.83
21504;BME280;10913;51.992;9.228;2023-02-04T08:16:54;102225.94;;;9.06;81.45
21504;BME280;10913;51.992;9.228;2023-02-04T08:19:19;102229.09;;;9.84;78.59
21504;BME280;10913;51.992;9.228;2023-02-04T08:21:46;102227.22;;;10.46;75.86
21504;BME280;10913;51.992;9.228;2023-02-04T08:24:13;102231.09;;;10.98;73.47
21504;BME280;10913;51.992;9.228;2023-02-04T08:26:39;102230.41;;;11.07;70.79
21504;BME280;10913;51.992;9.228;2023-02-04T08:29:05;102230.09;;;10.93;72.08
21504;BME280;10913;51.992;9.228;2023-02-04T08:31:31;102237.22;;;10.59;72.34
21504;BME280;10913;51.992;9.228;2023-02-04T08:33:57;102234.88;;;11.09;72.28
21504;BME280;10913;51.992;9.228;2023-02-04T08:36:22;102236.19;;;12.15;70.00
21504;BME280;10913;51.992;9.228;2023-02-04T08:38:48;102228.28;;;13.31;67.00
21504;BME280;10913;51.992;9.228;2023-02-04T08:41:13;102222.50;;;14.52;63.62
21504;BME280;10913;51.992;9.228;2023-02-04T08:43:38;102231.16;;;15.63;60.83
21504;BME280;10913;51.992;9.228;2023-02-04T08:46:04;102225.97;;;16.30;58.64
21504;BME280;10913;51.992;9.228;2023-02-04T08:48:29;102231.31;;;16.59;57.21
21504;BME280;10913;51.992;9.228;2023-02-04T08:50:54;102233.09;;;16.98;56.83
21504;BME280;10913;51.992;9.228;2023-02-04T08:53:20;102237.19;;;17.89;55.35
21504;BME280;10913;51.992;9.228;2023-02-04T08:55:45;102237.84;;;19.24;53.07
21504;BME280;10913;51.992;9.228;2023-02-04T08:58:10;102234.84;;;20.17;50.55
21504;BME280;10913;51.992;9.228;2023-02-04T09:00:36;102233.88;;;20.78;49.92
21504;BME280;10913;51.992;9.228;2023-02-04T09:03:01;102246.38;;;21.27;48.97
21504;BME280;10913;51.992;9.228;2023-02-04T09:05:27;102242.47;;;21.85;47.77
21504;BME280;10913;51.992;9.228;2023-02-04T09:07:52;102246.44;;;22.09;46.53
21504;BME280;10913;51.992;9.228;2023-02-04T09:10:17;102258.94;;;21.26;47.25
21504;BME280;10913;51.992;9.228;2023-02-04T09:12:43;102271.97;;;20.48;47.00
21504;BME280;10913;51.992;9.228;2023-02-04T09:15:10;102283.75;;;19.75;47.94
21504;BME280;10913;51.992;9.228;2023-02-04T09:17:35;102278.44;;;19.69;48.51
21504;BME280;10913;51.992;9.228;2023-02-04T09:20:02;102282.59;;;19.95;49.36
21504;BME280;10913;51.992;9.228;2023-02-04T09:22:27;102284.00;;;19.55;47.96
21504;BME280;10913;51.992;9.228;2023-02-04T09:24:53;102289.28;;;19.59;48.52
21504;BME280;10913;51.992;9.228;2023-02-04T09:27:18;102287.97;;;19.92;48.60
21504;BME280;10913;51.992;9.228;2023-02-04T09:29:44;102295.84;;;20.05;48.23
21504;BME280;10913;51.992;9.228;2023-02-04T09:32:09;102303.13;;;19.98;48.29
21504;BME280;10913;51.992;9.228;2023-02-04T09:34:34;102306.13;;;19.72;48.60
21504;BME280;10913;51.992;9.228;2023-02-04T09:37:00;102299.25;;;19.47;48.75
21504;BME280;10913;51.992;9.228;2023-02-04T09:39:25;102312.78;;;19.36;48.94
21504;BME280;10913;51.992;9.228;2023-02-04T09:41:50;102315.69;;;17.82;49.77
21504;BME280;10913;51.992;9.228;2023-02-04T09:44:21;102322.84;;;16.06;53.19
21504;BME280;10913;51.992;9.228;2023-02-04T09:46:54;102315.84;;;14.76;56.29
21504;BME280;10913;51.992;9.228;2023-02-04T09:49:20;102319.94;;;14.42;58.20
21504;BME280;10913;51.992;9.228;2023-02-04T09:51:46;102317.78;;;14.09;59.31
21504;BME280;10913;51.992;9.228;2023-02-04T09:54:17;102323.75;;;13.89;58.90
21504;BME280;10913;51.992;9.228;2023-02-04T09:56:43;102338.00;;;13.30;60.48
21504;BME280;10913;51.992;9.228;2023-02-04T09:59:17;102342.16;;;13.15;60.78
21504;BME280;10913;51.992;9.228;2023-02-04T10:01:45;102343.97;;;12.16;60.87
21504;BME280;10913;51.992;9.228;2023-02-04T10:04:13;102356.81;;;11.57;62.23
21504;BME280;10913;51.992;9.228;2023-02-04T10:06:39;102358.75;;;10.91;63.98
21504;BME280;10913;51.992;9.228;2023-02-04T10:09:09;102368.56;;;10.29;66.07
21504;BME280;10913;51.992;9.228;2023-02-04T10:11:37;102375.34;;;9.61;67.70
21504;BME280;10913;51.992;9.228;2023-02-04T10:14:03;102376.34;;;9.09;70.60
21504;BME280;10913;51.992;9.228;2023-02-04T10:16:31;102380.94;;;8.89;71.13
21504;BME280;10913;51.992;9.228;2023-02-04T10:19:02;102378.31;;;8.64;71.27
21504;BME280;10913;51.992;9.228;2023-02-04T10:21:34;102380.59;;;8.53;72.60
21504;BME280;10913;51.992;9.228;2023-02-04T10:24:05;102378.69;;;8.49;72.81
21504;BME280;10913;51.992;9.228;2023-02-04T10:26:34;102381.63;;;8.33;74.17
21504;BME280;10913;51.992;9.228;2023-02-04T10:29:05;102377.47;;;8.16;73.02
21504;BME280;10913;51.992;9.228;2023-02-04T10:34:32;102389.66;;;8.61;73.03
21504;BME280;10913;51.992;9.228;2023-02-04T10:36:56;102387.22;;;8.93;72.40
21504;BME280;10913;51.992;9.228;2023-02-04T10:39:24;102386.53;;;9.25;72.08
21504;BME280;10913;51.992;9.228;2023-02-04T10:41:52;102383.09;;;9.55;71.00
21504;BME280;10913;51.992;9.228;2023-02-04T10:44:32;102379.47;;;10.11;69.31
21504;BME280;10913;51.992;9.228;2023-02-04T10:47:06;102374.66;;;10.59;67.88
21504;BME280;10913;51.992;9.228;2023-02-04T10:49:37;102370.03;;;10.84;67.85
21504;BME280;10913;51.992;9.228;2023-02-04T10:52:12;102374.81;;;11.34;67.86
21504;BME280;10913;51.992;9.228;2023-02-04T10:54:39;102366.09;;;11.76;64.92
21504;BME280;10913;51.992;9.228;2023-02-04T10:57:25;102367.94;;;11.82;63.72
21504;BME280;10913;51.992;9.228;2023-02-04T10:59:52;102372.06;;;12.08;64.80
21504;BME280;10913;51.992;9.228;2023-02-04T11:02:42;102364.94;;;12.51;63.90
21504;BME280;10913;51.992;9.228;2023-02-04T11:05:20;102373.50;;;12.86;63.50
21504;BME280;10913;51.992;9.228;2023-02-04T11:07:47;102370.16;;;12.94;62.53
21504;BME280;10913;51.992;9.228;2023-02-04T11:10:15;102377.91;;;12.84;59.64
21504;BME280;10913;51.992;9.228;2023-02-04T11:20:50;102380.00;;;12.53;59.34
21504;BME280;10913;51.992;9.228;2023-02-04T11:23:29;102377.53;;;12.16;60.39
21504;BME280;10913;51.992;9.228;2023-02-04T11:26:09;102380.81;;;12.05;61.24
21504;BME280;10913;51.992;9.228;2023-02-04T11:28:45;102384.44;;;12.09;62.14
21504;BME280;10913;51.992;9.228;2023-02-04T11:39:36;102384.91;;;12.32;60.39
21504;BME280;10913;51.992;9.228;2023-02-04T11:42:03;102380.59;;;12.37;61.43
21504;BME280;10913;51.992;9.228;2023-02-04T11:44:29;102374.28;;;12.30;61.11
21504;BME280;10913;51.992;9.228;2023-02-04T11:46:55;102374.25;;;12.29;61.42
21504;BME280;10913;51.992;9.228;2023-02-04T11:49:24;102370.13;;;12.45;62.48
21504;BME280;10913;51.992;9.228;2023-02-04T11:51:50;102374.78;;;12.56;61.48
21504;BME280;10913;51.992;9.228;2023-02-04T11:54:17;102372.88;;;12.49;62.79
21504;BME280;10913;51.992;9.228;2023-02-04T11:56:46;102375.78;;;12.64;62.84
21504;BME280;10913;51.992;9.228;2023-02-04T11:59:12;102381.13;;;12.66;61.08
21504;BME280;10913;51.992;9.228;2023-02-04T12:01:38;102387.97;;;12.53;62.84
21504;BME280;10913;51.992;9.228;2023-02-04T12:04:06;102387.81;;;12.46;62.07
21504;BME280;10913;51.992;9.228;2023-02-04T12:06:35;102382.94;;;12.68;62.86
21504;BME280;10913;51.992;9.228;2023-02-04T12:11:59;102378.22;;;12.52;61.05
21504;BME280;10913;51.992;9.228;2023-02-04T12:14:31;102386.78;;;12.37;61.58
21504;BME280;10913;51.992;9.228;2023-02-04T12:16:56;102382.94;;;12.23;61.75
21504;BME280;10913;51.992;9.228;2023-02-04T12:19:22;102386.97;;;12.04;61.45
21504;BME280;10913;51.992;9.228;2023-02-04T12:21:47;102386.34;;;11.76;61.84
21504;BME280;10913;51.992;9.228;2023-02-04T12:24:13;102389.97;;;11.79;61.96
21504;BME280;10913;51.992;9.228;2023-02-04T12:26:38;102392.75;;;11.85;62.56
21504;BME280;10913;51.992;9.228;2023-02-04T12:29:03;102391.75;;;11.80;63.40
21504;BME280;10913;51.992;9.228;2023-02-04T12:31:30;102386.47;;;11.80;63.40
21504;BME280;10913;51.992;9.228;2023-02-04T12:33:56;102397.88;;;11.40;62.06
21504;BME280;10913;51.992;9.228;2023-02-04T12:36:21;102397.75;;;10.98;63.03
21504;BME280;10913;51.992;9.228;2023-02-04T12:38:47;102392.50;;;10.66;63.35
21504;BME280;10913;51.992;9.228;2023-02-04T12:41:12;102396.97;;;10.36;64.09
21504;BME280;10913;51.992;9.228;2023-02-04T12:43:37;102396.31;;;10.15;66.20
21504;BME280;10913;51.992;9.228;2023-02-04T12:46:03;102397.75;;;10.03;67.26
21504;BME280;10913;51.992;9.228;2023-02-04T12:48:28;102416.28;;;10.05;66.14
21504;BME280;10913;51.992;9.228;2023-02-04T12:50:54;102410.78;;;9.97;66.58
21504;BME280;10913;51.992;9.228;2023-02-04T12:53:19;102409.06;;;9.99;67.49
21504;BME280;10913;51.992;9.228;2023-02-04T12:55:45;102406.59;;;10.06;68.07
21504;BME280;10913;51.992;9.228;2023-02-04T12:58:10;102403.13;;;10.07;68.28
21504;BME280;10913;51.992;9.228;2023-02-04T13:00:36;102405.00;;;10.11;67.70
21504;BME280;10913;51.992;9.228;2023-02-04T13:03:02;102409.44;;;10.12;67.94
21504;BME280;10913;51.992;9.228;2023-02-04T13:05:27;102407.28;;;9.98;68.79
21504;BME280;10913;51.992;9.228;2023-02-04T13:07:53;102402.75;;;9.94;67.77
21504;BME280;10913;51.992;9.228;2023-02-04T13:10:18;102411.16;;;9.81;69.50